Time;durP1;ratioP1;P1;durP2;ratioP2;P2;SDS_P1;SDS_P2;PMS_P1;PMS_P2;Temp;Humidity;BMP_temperature;BMP_pressure;BME280_temperature;BME280_humidity;BME280_pressure;Samples;Min_cycle;Max_cycle;Signal;HPM_P1;HPM_P2
2020/12/30 00:02:15;;;;;;;37.20;20.47;;;5.20;99.90;;;;;;5069648;28;20222;-75
2020/12/30 00:04:41;;;;;;;38.87;21.30;;;5.10;99.90;;;;;;5071008;28;20224;-75
2020/12/30 00:07:07;;;;;;;40.10;21.97;;;5.20;99.90;;;;;;5070722;28;20657;-76
2020/12/30 00:09:32;;;;;;;38.80;21.83;;;5.20;99.90;;;;;;5069742;28;20275;-76
2020/12/30 00:11:58;;;;;;;43.03;22.47;;;5.20;99.90;;;;;;5072483;28;20234;-76
2020/12/30 00:14:23;;;;;;;44.97;22.67;;;5.30;99.90;;;;;;5067855;28;20192;-76
2020/12/30 00:16:49;;;;;;;37.10;21.47;;;5.30;99.90;;;;;;5069415;28;20181;-76
2020/12/30 00:19:15;;;;;;;38.97;22.43;;;5.30;99.90;;;;;;5075088;28;20630;-76
2020/12/30 00:21:40;;;;;;;41.80;22.80;;;5.20;99.90;;;;;;5073300;28;20711;-75
2020/12/30 00:24:06;;;;;;;36.77;20.67;;;5.10;99.90;;;;;;5074700;28;20195;-76
2020/12/30 00:26:32;;;;;;;42.43;21.80;;;4.90;99.90;;;;;;5073762;28;20197;-75
2020/12/30 00:28:57;;;;;;;44.87;22.33;;;4.80;99.90;;;;;;5072451;28;20184;-76
2020/12/30 00:31:23;;;;;;;39.87;21.77;;;4.80;99.90;;;;;;5039561;28;20637;-76
2020/12/30 00:33:49;;;;;;;41.63;23.00;;;4.80;99.90;;;;;;5059098;28;20210;-76
2020/12/30 00:36:14;;;;;;;41.13;21.80;;;4.70;99.90;;;;;;5070119;28;20180;-76
2020/12/30 00:38:43;;;;;;;41.97;22.90;;;4.70;99.90;;;;;;5054743;28;20246;-75
2020/12/30 00:41:13;;;;;;;42.03;23.13;;;4.70;99.90;;;;;;5073678;28;20958;-76
2020/12/30 00:43:39;;;;;;;41.87;22.67;;;4.50;99.90;;;;;;5074852;28;20188;-76
2020/12/30 00:46:05;;;;;;;44.43;23.80;;;4.50;99.90;;;;;;5058460;28;20700;-77
2020/12/30 00:48:31;;;;;;;47.13;23.77;;;4.50;99.90;;;;;;5089395;28;20165;-75
2020/12/30 00:50:57;;;;;;;45.80;23.27;;;4.50;99.90;;;;;;5059355;28;20194;-77
2020/12/30 00:53:22;;;;;;;41.60;21.80;;;4.50;99.90;;;;;;5074979;28;20509;-76
2020/12/30 00:55:48;;;;;;;40.87;21.43;;;4.60;99.90;;;;;;5055773;28;20265;-76
2020/12/30 00:58:21;;;;;;;41.83;22.30;;;4.70;99.90;;;;;;5087063;28;20278;-76
2020/12/30 01:00:48;;;;;;;38.27;20.93;;;4.90;99.90;;;;;;5057946;28;20688;-76
2020/12/30 01:03:33;;;;;;;42.10;21.50;;;4.90;99.90;;;;;;5069460;28;20191;-76
2020/12/30 01:06:03;;;;;;;42.87;21.67;;;5.00;99.90;;;;;;5074071;28;20527;-76
2020/12/30 01:08:29;;;;;;;39.50;21.03;;;5.00;99.90;;;;;;5075417;28;20172;-76
2020/12/30 01:10:55;;;;;;;40.70;21.87;;;5.00;99.90;;;;;;5071402;28;20246;-76
2020/12/30 01:13:20;;;;;;;40.57;21.73;;;5.00;99.90;;;;;;5075217;28;20572;-76
2020/12/30 01:15:46;;;;;;;37.33;21.37;;;4.90;99.90;;;;;;5072559;28;20181;-77
2020/12/30 01:18:12;;;;;;;40.50;22.10;;;4.90;99.90;;;;;;5071574;28;20204;-76
2020/12/30 01:20:38;;;;;;;39.63;21.63;;;4.80;99.90;;;;;;5074935;28;20273;-76
2020/12/30 01:23:04;;;;;;;39.63;22.03;;;4.80;99.90;;;;;;5070833;28;20658;-76
2020/12/30 01:25:29;;;;;;;41.90;21.97;;;4.90;99.90;;;;;;5089761;28;20218;-77
2020/12/30 01:27:55;;;;;;;42.33;22.13;;;5.00;99.90;;;;;;5056156;28;20203;-78
2020/12/30 01:30:22;;;;;;;40.17;21.90;;;5.10;99.90;;;;;;5072731;28;20238;-76
2020/12/30 01:32:48;;;;;;;43.53;22.37;;;5.10;99.90;;;;;;5073773;28;20191;-76
2020/12/30 01:35:13;;;;;;;42.83;22.43;;;5.00;99.90;;;;;;5069637;28;20189;-76
2020/12/30 01:37:40;;;;;;;43.67;21.87;;;5.00;99.90;;;;;;5071890;28;20186;-77
2020/12/30 01:40:05;;;;;;;45.17;23.57;;;5.00;99.90;;;;;;5058692;28;20965;-76
2020/12/30 01:42:45;;;;;;;46.53;23.60;;;5.00;99.90;;;;;;5073956;28;20184;-76
2020/12/30 01:45:12;;;;;;;50.23;23.07;;;4.90;99.90;;;;;;5074762;28;20189;-77
2020/12/30 01:47:38;;;;;;;51.37;24.03;;;4.90;99.90;;;;;;5072143;28;20194;-76
2020/12/30 01:50:05;;;;;;;53.20;25.37;;;5.00;99.90;;;;;;5071395;28;20637;-76
2020/12/30 01:52:31;;;;;;;48.80;24.53;;;4.90;99.90;;;;;;5067900;28;20194;-76
2020/12/30 01:54:57;;;;;;;54.80;26.13;;;4.90;99.90;;;;;;5072408;28;20177;-76
2020/12/30 01:57:23;;;;;;;53.30;25.50;;;5.00;99.90;;;;;;5072182;28;20263;-77
2020/12/30 01:59:49;;;;;;;47.17;23.87;;;5.00;99.90;;;;;;5083647;28;20171;-76
2020/12/30 02:02:15;;;;;;;42.50;22.13;;;5.10;99.90;;;;;;5071256;28;20194;-76
2020/12/30 02:04:49;;;;;;;36.50;20.03;;;5.00;99.90;;;;;;5040441;28;20276;-76
2020/12/30 02:07:16;;;;;;;38.33;19.40;;;4.60;99.90;;;;;;5071036;28;20181;-76
2020/12/30 02:09:43;;;;;;;38.70;20.90;;;4.50;99.90;;;;;;5075441;28;20646;-76
2020/12/30 02:12:10;;;;;;;44.53;22.00;;;4.50;99.90;;;;;;5052933;28;20237;-76
2020/12/30 02:14:36;;;;;;;39.47;20.37;;;4.50;99.90;;;;;;5069734;28;20652;-76
2020/12/30 02:17:02;;;;;;;44.93;22.17;;;4.60;99.90;;;;;;5068072;28;20657;-76
2020/12/30 02:19:27;;;;;;;44.93;23.20;;;4.70;99.90;;;;;;5069250;28;20271;-76
2020/12/30 02:22:03;;;;;;;41.90;22.57;;;4.80;99.90;;;;;;5071983;28;20291;-76
2020/12/30 02:24:32;;;;;;;44.63;21.73;;;4.90;99.90;;;;;;5067687;28;20193;-76
2020/12/30 02:26:59;;;;;;;43.90;23.10;;;4.90;99.90;;;;;;5039881;28;20184;-76
2020/12/30 02:29:25;;;;;;;43.20;23.13;;;4.90;99.90;;;;;;5066528;28;20278;-76
2020/12/30 02:31:51;;;;;;;42.13;21.63;;;4.90;99.90;;;;;;5071423;28;20181;-76
2020/12/30 02:34:17;;;;;;;41.53;21.30;;;4.80;99.90;;;;;;5032678;28;20617;-76
2020/12/30 02:36:44;;;;;;;46.40;22.63;;;4.70;99.90;;;;;;5070880;28;21529;-76
2020/12/30 02:39:09;;;;;;;41.97;22.77;;;4.60;99.90;;;;;;5053460;28;20274;-76
2020/12/30 02:41:35;;;;;;;55.97;24.57;;;4.60;99.90;;;;;;5053440;28;20313;-76
2020/12/30 02:44:02;;;;;;;58.40;27.03;;;4.50;99.90;;;;;;5052675;28;20218;-76
2020/12/30 02:46:28;;;;;;;57.80;27.10;;;4.40;99.90;;;;;;5035373;28;20259;-76
2020/12/30 02:48:54;;;;;;;62.23;29.23;;;4.30;99.90;;;;;;5054065;28;20337;-76
2020/12/30 02:51:20;;;;;;;58.77;27.30;;;4.30;99.90;;;;;;5054862;28;20179;-75
2020/12/30 02:53:45;;;;;;;69.70;30.60;;;4.30;99.90;;;;;;5069598;28;20205;-76
2020/12/30 02:56:11;;;;;;;72.37;31.50;;;4.40;99.90;;;;;;5056653;28;20191;-76
2020/12/30 02:58:37;;;;;;;68.83;30.47;;;4.50;99.90;;;;;;5054422;28;20183;-76
2020/12/30 03:01:09;;;;;;;75.73;32.13;;;4.60;99.90;;;;;;5054716;28;20722;-76
2020/12/30 03:03:34;;;;;;;74.53;32.23;;;4.60;99.90;;;;;;5057007;28;20653;-77
2020/12/30 03:06:00;;;;;;;78.63;35.03;;;4.60;99.90;;;;;;5052849;28;20187;-76
2020/12/30 03:08:26;;;;;;;68.97;33.47;;;4.60;99.90;;;;;;5055568;28;20186;-76
2020/12/30 03:10:51;;;;;;;77.53;34.00;;;4.60;99.90;;;;;;5071805;28;20183;-76
2020/12/30 03:13:17;;;;;;;85.07;36.07;;;4.70;99.90;;;;;;5071951;28;20269;-77
2020/12/30 03:15:42;;;;;;;78.53;33.47;;;4.80;99.90;;;;;;5086840;28;20702;-76
2020/12/30 03:18:08;;;;;;;76.67;33.30;;;4.90;99.90;;;;;;5059561;28;20219;-76
2020/12/30 03:20:34;;;;;;;67.80;31.77;;;5.00;99.90;;;;;;5038678;28;20211;-76
2020/12/30 03:22:59;;;;;;;64.97;31.50;;;5.10;99.90;;;;;;5052892;28;20586;-76
2020/12/30 03:25:25;;;;;;;68.77;31.27;;;5.10;99.90;;;;;;5053926;28;20200;-76
2020/12/30 03:27:51;;;;;;;61.77;31.13;;;5.20;99.90;;;;;;5070642;28;20628;-76
2020/12/30 03:30:16;;;;;;;59.43;29.90;;;5.20;99.90;;;;;;5067325;28;20217;-76
2020/12/30 03:32:42;;;;;;;63.67;30.43;;;5.30;99.90;;;;;;5070654;28;20221;-77
2020/12/30 03:35:08;;;;;;;61.57;30.10;;;5.30;99.90;;;;;;5048623;28;20670;-76
2020/12/30 03:37:33;;;;;;;58.27;29.67;;;5.30;99.90;;;;;;5084848;28;20696;-76
2020/12/30 03:39:59;;;;;;;61.23;28.63;;;5.40;99.90;;;;;;5072626;28;20268;-76
2020/12/30 03:42:25;;;;;;;58.77;28.43;;;5.40;99.90;;;;;;5070458;28;20169;-77
2020/12/30 03:44:50;;;;;;;58.17;28.53;;;5.40;99.90;;;;;;5070967;28;20225;-76
2020/12/30 03:47:16;;;;;;;57.43;28.07;;;5.40;99.90;;;;;;5070476;28;20665;-76
2020/12/30 03:49:42;;;;;;;60.27;28.07;;;5.50;99.90;;;;;;5082862;28;20178;-76
2020/12/30 03:52:07;;;;;;;60.27;28.00;;;5.50;99.90;;;;;;5052645;28;20263;-76
2020/12/30 03:54:33;;;;;;;57.60;27.73;;;5.60;99.90;;;;;;5072564;28;20733;-76
2020/12/30 03:56:59;;;;;;;56.63;27.43;;;5.60;99.90;;;;;;5074774;28;20702;-76
2020/12/30 03:59:24;;;;;;;54.83;27.63;;;5.60;99.90;;;;;;5074762;28;20301;-76
2020/12/30 04:01:50;;;;;;;58.10;28.63;;;5.70;99.90;;;;;;5070753;28;20204;-76
2020/12/30 04:04:16;;;;;;;52.67;26.60;;;5.80;99.90;;;;;;5060158;28;20263;-76
2020/12/30 04:06:43;;;;;;;60.87;27.67;;;5.90;99.90;;;;;;5053806;28;20517;-76
2020/12/30 04:09:10;;;;;;;54.23;26.77;;;5.90;99.90;;;;;;5076951;28;20307;-76
2020/12/30 04:11:35;;;;;;;55.40;27.67;;;5.80;99.90;;;;;;5078403;28;20276;-76
2020/12/30 04:14:01;;;;;;;48.03;26.03;;;5.70;99.90;;;;;;5071624;28;20713;-76
2020/12/30 04:16:27;;;;;;;56.23;27.03;;;5.60;99.90;;;;;;5055829;28;20656;-76
2020/12/30 04:18:52;;;;;;;55.97;27.70;;;5.50;99.90;;;;;;5075169;28;20212;-77
2020/12/30 04:21:19;;;;;;;54.23;27.17;;;5.50;99.90;;;;;;5069154;28;20258;-76
2020/12/30 04:23:45;;;;;;;54.00;27.17;;;5.60;99.90;;;;;;5088540;28;20238;-76
2020/12/30 04:26:11;;;;;;;48.33;26.70;;;5.60;99.90;;;;;;5056959;28;20214;-76
2020/12/30 04:28:36;;;;;;;54.40;27.13;;;5.60;99.90;;;;;;5072544;28;20228;-76
2020/12/30 04:31:02;;;;;;;53.97;26.63;;;5.50;99.90;;;;;;5077697;28;20620;-76
2020/12/30 04:33:28;;;;;;;52.30;26.60;;;5.50;99.90;;;;;;5072607;28;20188;-76
2020/12/30 04:35:53;;;;;;;51.57;27.03;;;5.70;99.90;;;;;;5053590;28;20244;-76
2020/12/30 04:38:19;;;;;;;49.57;26.40;;;5.80;99.90;;;;;;5072492;28;20192;-76
2020/12/30 04:40:45;;;;;;;49.70;26.47;;;5.90;99.90;;;;;;5073674;28;20218;-77
2020/12/30 04:43:12;;;;;;;46.37;25.93;;;6.00;99.90;;;;;;5073083;28;20182;-76
2020/12/30 04:45:38;;;;;;;48.53;26.10;;;6.00;99.90;;;;;;5058629;28;20178;-76
2020/12/30 04:48:06;;;;;;;52.40;26.03;;;6.00;99.90;;;;;;5073800;28;20184;-76
2020/12/30 04:50:32;;;;;;;50.40;25.60;;;6.00;99.90;;;;;;5058056;28;20200;-76
2020/12/30 04:52:58;;;;;;;49.57;25.80;;;6.00;99.90;;;;;;5074873;28;20197;-76
2020/12/30 04:55:24;;;;;;;49.50;25.30;;;6.10;99.90;;;;;;5056599;28;20187;-76
2020/12/30 04:58:03;;;;;;;46.43;25.43;;;5.90;99.90;;;;;;5072383;28;20184;-76
2020/12/30 05:00:30;;;;;;;46.60;24.53;;;5.90;99.90;;;;;;5054799;28;20236;-75
2020/12/30 05:02:59;;;;;;;47.83;24.83;;;5.80;99.90;;;;;;5057957;28;20555;-76
2020/12/30 05:05:26;;;;;;;44.17;24.00;;;5.70;99.90;;;;;;5071026;28;20190;-76
2020/12/30 05:07:55;;;;;;;42.83;23.80;;;5.60;99.90;;;;;;5072793;28;20212;-76
2020/12/30 05:10:21;;;;;;;49.60;24.93;;;5.60;99.90;;;;;;5071746;28;20207;-76
2020/12/30 05:12:47;;;;;;;46.63;24.67;;;5.50;99.90;;;;;;5071616;28;20195;-76
2020/12/30 05:15:13;;;;;;;44.83;24.27;;;5.40;99.90;;;;;;5055505;28;20242;-76
2020/12/30 05:17:39;;;;;;;47.90;24.40;;;5.40;99.90;;;;;;5056718;28;20269;-76
2020/12/30 05:20:08;;;;;;;48.13;25.17;;;5.40;99.90;;;;;;5056159;28;20195;-76
2020/12/30 05:22:34;;;;;;;47.23;26.03;;;5.30;99.90;;;;;;5072944;28;20552;-76
2020/12/30 05:25:03;;;;;;;47.70;26.10;;;5.30;99.90;;;;;;5055846;28;20233;-76
2020/12/30 05:27:30;;;;;;;52.57;27.33;;;5.30;99.90;;;;;;5072629;28;20256;-76
2020/12/30 05:29:57;;;;;;;51.57;26.03;;;5.40;99.90;;;;;;5072730;28;20217;-76
2020/12/30 05:32:22;;;;;;;54.60;26.77;;;5.40;99.90;;;;;;5054990;28;20277;-76
2020/12/30 05:34:48;;;;;;;54.03;27.30;;;5.40;99.90;;;;;;5057096;28;20451;-76
2020/12/30 05:37:15;;;;;;;50.07;27.23;;;5.50;99.90;;;;;;5073176;28;20188;-76
2020/12/30 05:39:41;;;;;;;48.43;25.27;;;5.60;99.90;;;;;;5091891;28;20671;-76
2020/12/30 05:42:20;;;;;;;53.27;27.23;;;5.60;99.90;;;;;;5089434;28;20208;-76
2020/12/30 05:44:51;;;;;;;47.83;25.47;;;5.50;99.90;;;;;;5038448;28;20210;-76
2020/12/30 05:47:22;;;;;;;49.05;26.90;;;5.50;99.90;;;;;;5054580;28;20444;-76
2020/12/30 05:49:52;;;;;;;53.77;26.60;;;5.60;99.90;;;;;;5055364;28;20188;-77
2020/12/30 05:52:23;;;;;;;54.20;26.37;;;5.50;99.90;;;;;;5071616;28;20263;-76
2020/12/30 05:54:54;;;;;;;48.77;25.77;;;5.50;99.90;;;;;;5071986;28;20634;-76
2020/12/30 05:57:26;;;;;;;47.30;25.40;;;5.60;99.90;;;;;;5069348;28;20187;-76
2020/12/30 05:59:54;;;;;;;50.47;26.03;;;5.50;99.90;;;;;;5054712;28;20192;-76
2020/12/30 06:02:23;;;;;;;47.37;25.03;;;5.40;99.90;;;;;;5085407;28;20218;-76
2020/12/30 06:04:50;;;;;;;47.10;25.10;;;5.50;99.90;;;;;;5066343;28;20195;-76
2020/12/30 06:07:18;;;;;;;49.00;25.73;;;5.50;99.90;;;;;;5057741;28;20212;-77
2020/12/30 06:09:50;;;;;;;49.33;25.47;;;5.60;99.90;;;;;;5069654;28;20209;-76
2020/12/30 06:12:24;;;;;;;44.00;24.77;;;5.60;99.90;;;;;;5053264;28;20197;-76
2020/12/30 06:14:51;;;;;;;50.73;25.00;;;5.50;99.90;;;;;;5064637;28;20198;-75
2020/12/30 06:17:28;;;;;;;49.97;25.00;;;5.60;99.90;;;;;;5067627;28;20185;-75
2020/12/30 06:19:55;;;;;;;47.87;25.10;;;5.60;99.90;;;;;;5068732;28;20185;-76
2020/12/30 06:22:22;;;;;;;46.13;24.40;;;5.50;99.90;;;;;;5067960;28;20570;-76
2020/12/30 06:24:52;;;;;;;41.63;23.33;;;5.60;99.90;;;;;;5068371;28;20187;-76
2020/12/30 06:27:26;;;;;;;48.67;27.67;;;5.50;99.90;;;;;;5051540;28;20540;-81
2020/12/30 06:29:55;;;;;;;46.63;25.13;;;5.40;99.90;;;;;;5059969;28;20251;-76
2020/12/30 06:32:28;;;;;;;45.17;24.50;;;5.50;99.90;;;;;;5050231;28;20188;-76
2020/12/30 06:34:54;;;;;;;46.87;23.07;;;5.70;99.90;;;;;;5047742;28;20191;-76
2020/12/30 06:37:33;;;;;;;42.83;23.07;;;5.70;99.90;;;;;;5047478;28;20543;-76
2020/12/30 06:40:19;;;;;;;43.80;23.13;;;5.70;99.90;;;;;;5044888;28;20183;-76
2020/12/30 06:42:46;;;;;;;44.37;22.97;;;5.70;99.90;;;;;;5062411;28;20593;-77
2020/12/30 06:45:21;;;;;;;40.63;23.00;;;5.70;99.90;;;;;;5051238;28;20187;-77
2020/12/30 06:47:58;;;;;;;43.20;21.93;;;5.70;99.90;;;;;;5081245;28;20268;-76
2020/12/30 06:50:24;;;;;;;44.50;22.23;;;5.60;99.90;;;;;;5049128;28;20196;-76
2020/12/30 06:52:50;;;;;;;40.17;20.60;;;5.40;99.90;;;;;;5048491;28;20208;-76
2020/12/30 06:55:15;;;;;;;43.13;22.40;;;5.40;99.90;;;;;;5044863;28;20213;-76
2020/12/30 06:57:44;;;;;;;46.23;23.57;;;5.40;99.90;;;;;;5048666;28;20197;-76
2020/12/30 07:00:34;;;;;;;43.47;22.33;;;5.50;99.90;;;;;;5043017;28;20184;-76
2020/12/30 07:03:19;;;;;;;45.23;22.50;;;5.40;99.90;;;;;;5048372;28;20184;-76
2020/12/30 07:05:46;;;;;;;44.70;23.43;;;5.40;99.90;;;;;;5049172;28;20770;-76
2020/12/30 07:08:32;;;;;;;46.07;23.13;;;5.50;99.90;;;;;;5048233;28;20185;-76
2020/12/30 07:10:57;;;;;;;45.93;22.30;;;5.50;99.90;;;;;;5064973;28;20286;-75
2020/12/30 07:13:27;;;;;;;44.93;23.13;;;5.50;99.90;;;;;;5049632;28;20314;-76
2020/12/30 07:16:14;;;;;;;42.37;23.40;;;5.60;99.90;;;;;;5046785;28;20250;-76
2020/12/30 07:18:42;;;;;;;50.97;22.33;;;5.60;99.90;;;;;;5078559;28;20199;-76
2020/12/30 07:21:15;;;;;;;46.03;22.23;;;5.60;99.90;;;;;;5051520;28;20284;-77
2020/12/30 07:23:45;;;;;;;44.00;22.50;;;5.60;99.90;;;;;;5053385;28;20193;-77
2020/12/30 07:26:18;;;;;;;40.43;21.23;;;5.70;99.90;;;;;;5051911;28;20546;-77
2020/12/30 07:28:45;;;;;;;52.67;22.83;;;5.70;99.90;;;;;;5049221;28;20188;-77
2020/12/30 07:31:12;;;;;;;51.13;22.87;;;5.80;99.90;;;;;;5053804;28;20668;-77
2020/12/30 07:33:38;;;;;;;41.40;22.07;;;5.80;99.90;;;;;;5091219;28;20192;-77
2020/12/30 07:36:05;;;;;;;40.80;21.57;;;5.90;99.90;;;;;;5067798;28;20558;-77
2020/12/30 07:38:33;;;;;;;45.53;23.27;;;5.90;99.90;;;;;;5056199;28;20195;-77
2020/12/30 07:41:09;;;;;;;44.73;22.83;;;5.90;99.90;;;;;;5074425;28;20338;-77
2020/12/30 07:44:04;;;;;;;40.73;20.83;;;5.90;99.90;;;;;;5070717;28;20184;-77
2020/12/30 07:46:30;;;;;;;44.07;22.37;;;5.90;99.90;;;;;;5050577;28;20699;-77
2020/12/30 07:49:12;;;;;;;43.33;21.80;;;5.90;99.90;;;;;;5067910;28;20193;-77
2020/12/30 07:51:50;;;;;;;41.03;21.97;;;6.00;99.90;;;;;;5054489;28;20715;-77
2020/12/30 07:54:17;;;;;;;40.50;20.87;;;6.00;99.90;;;;;;5072696;28;20175;-77
2020/12/30 07:56:43;;;;;;;38.60;20.53;;;6.00;99.90;;;;;;5087231;28;20302;-77
2020/12/30 07:59:09;;;;;;;44.43;23.30;;;6.00;99.90;;;;;;5070330;28;20178;-77
2020/12/30 08:01:34;;;;;;;46.10;21.43;;;6.10;99.90;;;;;;5069882;28;20208;-77
2020/12/30 08:04:08;;;;;;;43.67;22.10;;;6.20;99.90;;;;;;5072026;28;20189;-77
2020/12/30 08:06:46;;;;;;;43.07;21.53;;;6.20;99.90;;;;;;5052802;28;20314;-77
2020/12/30 08:09:13;;;;;;;44.43;20.80;;;6.20;99.90;;;;;;5054361;28;20250;-77
2020/12/30 08:11:50;;;;;;;41.33;20.23;;;6.20;99.90;;;;;;5069123;28;20196;-77
2020/12/30 08:14:16;;;;;;;39.40;21.07;;;6.30;99.90;;;;;;5053277;28;20209;-77
2020/12/30 08:17:13;;;;;;;42.60;21.70;;;6.40;99.90;;;;;;5070005;28;20184;-77
2020/12/30 08:19:46;;;;;;;46.97;21.30;;;6.40;99.90;;;;;;5022455;28;20300;-78
2020/12/30 08:22:27;;;;;;;40.50;21.83;;;6.40;99.90;;;;;;5053981;28;20234;-77
2020/12/30 08:24:53;;;;;;;44.00;21.50;;;6.40;99.90;;;;;;5051059;28;20714;-78
2020/12/30 08:27:27;;;;;;;48.40;22.70;;;6.40;99.90;;;;;;5064998;28;20206;-76
2020/12/30 08:29:53;;;;;;;43.03;21.20;;;6.50;99.90;;;;;;5053265;28;20223;-76
2020/12/30 08:32:34;;;;;;;39.40;22.00;;;6.50;99.90;;;;;;5053180;28;20191;-76
2020/12/30 08:35:18;;;;;;;43.50;21.07;;;6.50;99.90;;;;;;5054361;28;20750;-76
2020/12/30 08:37:47;;;;;;;41.97;21.37;;;6.50;99.90;;;;;;5072763;28;20172;-76
2020/12/30 08:40:17;;;;;;;41.70;21.77;;;6.50;99.90;;;;;;5037276;28;20195;-76
2020/12/30 08:43:20;;;;;;;43.33;21.20;;;6.50;99.90;;;;;;5058011;28;20201;-76
2020/12/30 08:45:59;;;;;;;42.77;20.43;;;6.50;99.90;;;;;;5085627;28;20197;-76
2020/12/30 08:48:29;;;;;;;39.87;21.87;;;6.50;99.90;;;;;;5053543;28;20178;-76
2020/12/30 08:50:58;;;;;;;42.37;20.30;;;6.50;99.90;;;;;;5055271;28;20188;-76
2020/12/30 08:53:50;;;;;;;39.63;21.20;;;6.50;99.90;;;;;;5045923;28;20188;-76
2020/12/30 08:56:18;;;;;;;43.47;21.27;;;6.50;99.90;;;;;;5086774;28;20232;-76
2020/12/30 08:58:54;;;;;;;36.37;19.43;;;6.60;99.90;;;;;;5055332;28;20683;-76
2020/12/30 09:01:24;;;;;;;41.50;20.20;;;6.60;99.90;;;;;;5074098;28;20290;-76
2020/12/30 09:03:50;;;;;;;38.60;20.43;;;6.70;99.90;;;;;;5075790;28;20202;-76
2020/12/30 09:06:29;;;;;;;38.43;18.97;;;6.70;99.90;;;;;;5060619;28;20706;-76
2020/12/30 09:09:07;;;;;;;42.17;20.23;;;6.70;99.90;;;;;;5062517;28;20181;-76
2020/12/30 09:11:33;;;;;;;37.00;19.50;;;6.70;99.90;;;;;;5074832;28;20237;-76
2020/12/30 09:13:58;;;;;;;36.43;19.97;;;6.70;99.90;;;;;;5054461;28;20250;-77
2020/12/30 09:16:24;;;;;;;40.00;19.87;;;6.80;99.90;;;;;;5073435;28;20603;-76
2020/12/30 09:18:50;;;;;;;36.87;19.50;;;6.70;99.90;;;;;;5042795;28;20184;-76
2020/12/30 09:21:25;;;;;;;36.30;19.43;;;6.80;99.90;;;;;;5072216;28;20212;-77
2020/12/30 09:23:51;;;;;;;36.37;19.80;;;6.90;99.90;;;;;;5057503;28;20279;-76
2020/12/30 09:26:27;;;;;;;36.80;19.30;;;7.00;99.90;;;;;;5056969;28;20261;-77
2020/12/30 09:28:53;;;;;;;35.30;18.43;;;7.00;99.90;;;;;;5055720;28;20175;-76
2020/12/30 09:31:19;;;;;;;37.63;19.57;;;6.90;99.90;;;;;;5060079;28;20662;-76
2020/12/30 09:33:45;;;;;;;38.30;20.43;;;6.80;99.90;;;;;;5078253;28;20197;-76
2020/12/30 09:36:10;;;;;;;40.73;20.10;;;6.80;99.90;;;;;;5057489;28;20179;-77
2020/12/30 09:38:36;;;;;;;40.63;19.90;;;6.90;99.90;;;;;;5038230;28;20236;-76
2020/12/30 09:41:14;;;;;;;38.90;19.10;;;7.00;99.90;;;;;;5067724;28;20214;-77
2020/12/30 09:43:45;;;;;;;38.73;19.63;;;7.20;99.90;;;;;;5055820;28;20527;-76
2020/12/30 09:46:18;;;;;;;41.70;20.90;;;7.20;99.90;;;;;;5058431;28;20546;-76
2020/12/30 09:48:44;;;;;;;38.37;19.47;;;7.30;99.90;;;;;;5092376;28;20198;-76
2020/12/30 09:51:10;;;;;;;38.87;19.60;;;7.40;99.90;;;;;;5058538;28;20186;-77
2020/12/30 09:53:35;;;;;;;34.10;18.77;;;7.50;99.90;;;;;;5087953;28;20194;-76
2020/12/30 09:56:01;;;;;;;36.07;19.23;;;7.50;99.90;;;;;;5072129;28;20191;-76
2020/12/30 09:58:26;;;;;;;37.27;18.93;;;7.60;99.90;;;;;;5054709;28;20653;-76
2020/12/30 10:00:52;;;;;;;33.80;17.83;;;7.70;99.90;;;;;;5069383;28;20206;-76
2020/12/30 10:03:18;;;;;;;35.90;19.13;;;7.60;99.90;;;;;;5055485;28;20189;-76
2020/12/30 10:05:43;;;;;;;34.03;18.80;;;7.70;99.90;;;;;;5074954;28;20190;-76
2020/12/30 10:08:09;;;;;;;35.87;18.67;;;7.70;99.90;;;;;;5057165;28;20184;-76
2020/12/30 10:10:35;;;;;;;35.93;18.67;;;7.60;99.90;;;;;;5078965;28;20187;-76
2020/12/30 10:13:00;;;;;;;34.20;18.00;;;7.50;99.90;;;;;;5072825;28;20172;-76
2020/12/30 10:15:27;;;;;;;35.77;18.53;;;7.60;99.90;;;;;;5053097;28;20892;-77
2020/12/30 10:17:53;;;;;;;33.30;18.33;;;7.40;99.90;;;;;;5069008;28;20657;-76
2020/12/30 10:20:18;;;;;;;38.83;19.73;;;7.30;99.90;;;;;;5055435;28;20181;-76
2020/12/30 10:22:45;;;;;;;42.87;19.77;;;7.40;99.90;;;;;;5076723;28;22248;-77
2020/12/30 10:25:12;;;;;;;40.87;20.90;;;7.40;99.90;;;;;;5073551;28;20242;-76
2020/12/30 10:27:39;;;;;;;39.67;19.90;;;7.40;99.90;;;;;;5076498;28;20748;-76
2020/12/30 10:30:06;;;;;;;38.13;19.97;;;7.40;99.90;;;;;;5053676;28;20594;-76
2020/12/30 10:32:32;;;;;;;38.80;20.10;;;7.40;99.90;;;;;;5053884;28;20212;-77
2020/12/30 10:34:57;;;;;;;40.20;20.00;;;7.60;99.90;;;;;;5087641;28;20234;-77
2020/12/30 10:37:23;;;;;;;38.17;19.00;;;7.70;99.90;;;;;;5056714;28;20218;-77
2020/12/30 10:39:49;;;;;;;38.17;18.70;;;7.80;99.90;;;;;;5092098;28;20183;-77
2020/12/30 10:42:15;;;;;;;39.50;19.87;;;7.90;99.90;;;;;;5070334;28;20211;-77
2020/12/30 10:44:42;;;;;;;39.77;19.20;;;8.00;99.90;;;;;;5071659;28;20175;-77
2020/12/30 10:47:08;;;;;;;41.57;19.63;;;8.10;99.90;;;;;;5050927;28;20218;-76
2020/12/30 10:49:33;;;;;;;38.43;19.30;;;8.10;99.90;;;;;;5071781;28;20194;-77
2020/12/30 10:51:59;;;;;;;39.23;19.00;;;8.20;99.90;;;;;;5074709;28;20191;-77
2020/12/30 10:54:25;;;;;;;38.17;19.13;;;8.30;99.90;;;;;;5054980;28;20191;-77
2020/12/30 10:56:52;;;;;;;32.63;18.10;;;8.40;99.90;;;;;;5037363;28;20655;-77
2020/12/30 10:59:19;;;;;;;31.00;17.00;;;8.40;99.90;;;;;;5054431;28;20244;-77
2020/12/30 11:01:49;;;;;;;32.13;17.33;;;8.40;99.90;;;;;;5037661;28;20199;-77
2020/12/30 11:04:14;;;;;;;30.70;16.43;;;8.40;99.90;;;;;;5071465;28;20312;-77
2020/12/30 11:06:40;;;;;;;29.80;16.07;;;8.50;99.90;;;;;;5056464;28;20662;-77
2020/12/30 11:09:06;;;;;;;28.27;16.63;;;8.60;99.90;;;;;;5069899;28;20210;-77
2020/12/30 11:11:33;;;;;;;31.87;15.90;;;8.60;99.90;;;;;;5056992;28;20302;-77
2020/12/30 11:13:59;;;;;;;32.80;16.60;;;8.70;99.90;;;;;;5075901;28;20205;-77
2020/12/30 11:16:24;;;;;;;31.37;17.10;;;8.80;99.90;;;;;;5053695;28;20183;-78
2020/12/30 11:18:50;;;;;;;27.80;16.10;;;8.90;99.90;;;;;;5071497;28;20195;-77
2020/12/30 11:21:16;;;;;;;30.43;16.03;;;8.90;99.90;;;;;;5052823;28;20225;-77
2020/12/30 11:23:42;;;;;;;25.27;14.03;;;8.90;99.90;;;;;;5070103;28;20202;-77
2020/12/30 11:26:08;;;;;;;27.90;15.63;;;8.90;99.90;;;;;;5056985;28;20261;-78
2020/12/30 11:28:33;;;;;;;26.53;14.50;;;8.90;99.90;;;;;;5070248;28;20184;-79
2020/12/30 11:30:59;;;;;;;24.00;13.87;;;8.90;99.90;;;;;;5049431;28;20293;-78
2020/12/30 11:33:26;;;;;;;23.20;13.50;;;9.00;99.90;;;;;;5054728;28;20264;-78
2020/12/30 11:35:51;;;;;;;25.37;13.93;;;8.90;99.90;;;;;;5081354;28;20642;-77
2020/12/30 11:38:17;;;;;;;23.87;12.87;;;9.00;99.90;;;;;;5049791;28;20195;-77
2020/12/30 11:40:43;;;;;;;21.97;11.93;;;9.20;99.90;;;;;;5054621;28;20203;-77
2020/12/30 11:43:08;;;;;;;23.53;11.50;;;9.20;99.90;;;;;;5054142;28;20210;-77
2020/12/30 11:45:34;;;;;;;21.23;11.40;;;9.30;99.90;;;;;;5051933;28;20234;-79
2020/12/30 11:48:00;;;;;;;20.33;10.97;;;9.10;99.90;;;;;;5051637;28;20177;-78
2020/12/30 11:50:27;;;;;;;17.57;10.70;;;9.10;99.90;;;;;;5064292;28;20180;-80
2020/12/30 11:52:52;;;;;;;19.90;11.47;;;9.10;99.90;;;;;;5053954;28;20266;-79
2020/12/30 11:55:18;;;;;;;16.63;9.27;;;8.90;99.90;;;;;;5050361;28;20607;-78
2020/12/30 11:57:44;;;;;;;18.90;10.13;;;8.70;99.90;;;;;;5050636;28;20177;-78
2020/12/30 12:00:10;;;;;;;17.13;9.33;;;8.70;99.90;;;;;;5054918;28;20178;-78
2020/12/30 12:02:36;;;;;;;19.93;10.13;;;8.80;99.90;;;;;;5032490;28;20609;-77
2020/12/30 12:05:03;;;;;;;15.33;9.07;;;8.80;99.90;;;;;;5041096;28;20195;-77
2020/12/30 12:07:29;;;;;;;17.47;9.83;;;8.80;99.90;;;;;;5049456;28;20242;-77
2020/12/30 12:09:56;;;;;;;16.33;9.07;;;8.70;99.90;;;;;;5066046;28;20267;-77
2020/12/30 12:12:22;;;;;;;15.73;9.43;;;8.60;99.90;;;;;;5049070;28;20253;-77
2020/12/30 12:14:48;;;;;;;17.60;10.67;;;8.60;99.90;;;;;;5049726;28;20191;-78
2020/12/30 12:17:14;;;;;;;19.63;10.10;;;8.50;99.90;;;;;;5056374;28;20245;-77
2020/12/30 12:19:40;;;;;;;17.97;10.63;;;8.30;99.90;;;;;;5051262;28;20184;-77
2020/12/30 12:22:06;;;;;;;18.53;10.67;;;8.30;99.90;;;;;;5042841;28;20212;-77
2020/12/30 12:24:32;;;;;;;20.63;10.83;;;8.40;99.90;;;;;;5042137;28;20187;-77
2020/12/30 12:26:57;;;;;;;20.77;10.13;;;8.60;99.90;;;;;;5045573;28;20636;-78
2020/12/30 12:29:35;;;;;;;18.77;10.70;;;8.60;99.90;;;;;;5046749;28;20225;-77
2020/12/30 12:32:10;;;;;;;17.60;9.77;;;8.80;99.90;;;;;;5046673;28;20222;-78
2020/12/30 12:34:37;;;;;;;15.57;9.10;;;8.90;99.90;;;;;;5046877;28;20235;-77
2020/12/30 12:37:05;;;;;;;17.37;9.40;;;8.90;99.90;;;;;;5047948;28;20985;-78
2020/12/30 12:39:32;;;;;;;18.33;10.20;;;9.00;99.90;;;;;;5046884;28;20192;-77
2020/12/30 12:41:58;;;;;;;16.43;9.30;;;9.00;99.90;;;;;;5031411;28;20204;-77
2020/12/30 12:44:24;;;;;;;16.00;9.03;;;8.90;99.90;;;;;;5045741;28;20185;-77